createdAt,value
2019-02-15T00:02:31.840Z,19.05
2019-02-15T00:08:26.831Z,14.58
2019-02-15T00:14:21.866Z,16.4
2019-02-15T00:20:16.871Z,17.52
2019-02-15T00:26:11.873Z,11.94
2019-02-15T00:32:06.898Z,11.55
2019-02-15T00:38:01.868Z,11.91
2019-02-15T00:43:56.878Z,9.87
2019-02-15T00:49:51.867Z,11.24
2019-02-15T00:55:46.973Z,13.07
2019-02-15T01:01:41.890Z,11.84
2019-02-15T01:07:36.916Z,18.63
2019-02-15T01:13:31.941Z,12.16
2019-02-15T01:19:26.908Z,12.78
2019-02-15T01:25:21.901Z,17.27
2019-02-15T01:31:16.905Z,19.28
2019-02-15T01:37:11.895Z,16.69
2019-02-15T01:43:06.902Z,15.83
2019-02-15T01:49:01.921Z,14.92
2019-02-15T01:54:56.945Z,15.01
2019-02-15T02:00:51.913Z,16.31
2019-02-15T02:06:46.895Z,16.51
2019-02-15T02:12:41.957Z,18.36
2019-02-15T02:18:36.909Z,23.81
2019-02-15T02:24:31.924Z,18.75
2019-02-15T02:30:26.930Z,16.68
2019-02-15T02:36:21.916Z,18.71
2019-02-15T02:42:16.954Z,18.25
2019-02-15T02:48:11.926Z,16.43
2019-02-15T02:54:06.927Z,22.59
2019-02-15T03:00:01.938Z,17.93
2019-02-15T03:05:56.950Z,20.24
2019-02-15T03:11:51.936Z,22.77
2019-02-15T03:17:46.984Z,23.71
2019-02-15T03:23:41.952Z,21.79
2019-02-15T03:29:37.038Z,21.07
2019-02-15T03:35:31.986Z,23.57
2019-02-15T03:41:26.983Z,21.9
2019-02-15T03:47:21.962Z,22.24
2019-02-15T03:53:16.960Z,28.07
2019-02-15T03:59:11.956Z,25.47
2019-02-15T04:05:06.962Z,25.98
2019-02-15T04:11:01.964Z,23.74
2019-02-15T04:16:56.955Z,25.22
2019-02-15T04:22:52.004Z,25.21
2019-02-15T04:28:46.968Z,28.14
2019-02-15T04:34:41.969Z,21.73
2019-02-15T04:40:36.982Z,24.02
2019-02-15T04:46:31.985Z,23.93
2019-02-15T04:52:27.021Z,26.83
2019-02-15T04:58:22.008Z,35.66
2019-02-15T05:04:16.982Z,39.65
2019-02-15T05:10:11.983Z,51.84
2019-02-15T05:16:07.007Z,55.56
2019-02-15T05:22:02.001Z,62.15
2019-02-15T05:27:57.026Z,75.8
2019-02-15T05:33:51.984Z,84.84
2019-02-15T05:39:47.003Z,79.72
2019-02-15T05:45:42.036Z,82.12
2019-02-15T05:51:37.010Z,88.81
2019-02-15T05:57:32.001Z,90.56
2019-02-15T06:03:27.023Z,81.61
2019-02-15T06:09:22.018Z,81.03
2019-02-15T06:15:17.015Z,110.27
2019-02-15T06:21:12.011Z,110.8
2019-02-15T06:27:07.022Z,104.28
2019-02-15T06:33:02.052Z,107.15
2019-02-15T06:38:57.021Z,108.13
2019-02-15T06:44:52.030Z,127.36
2019-02-15T06:50:47.090Z,137.78
2019-02-15T06:56:42.019Z,119.6
2019-02-15T07:02:37.043Z,110.68
2019-02-15T07:08:32.034Z,93.13
2019-02-15T07:14:27.053Z,100.24
2019-02-15T07:20:22.041Z,108.73
2019-02-15T07:26:17.026Z,127.37
2019-02-15T07:32:12.072Z,117.23
2019-02-15T07:38:07.065Z,92.54
2019-02-15T07:44:02.049Z,86.38
2019-02-15T07:49:57.037Z,71.89
2019-02-15T07:55:52.101Z,66.24
2019-02-15T08:01:47.070Z,82.65
2019-02-15T08:07:42.134Z,56.97
2019-02-15T08:13:37.104Z,59.38
2019-02-15T08:19:32.100Z,47.05
2019-02-15T08:25:27.082Z,50.88
2019-02-15T08:31:22.093Z,65.21
2019-02-15T08:37:17.080Z,81.93
2019-02-15T08:43:12.072Z,65.29
2019-02-15T08:49:07.088Z,65.69
2019-02-15T08:55:02.124Z,74.57
2019-02-15T09:00:57.092Z,84.56
2019-02-15T09:06:52.100Z,66.57
2019-02-15T09:12:47.103Z,78.38
2019-02-15T09:18:42.104Z,82.15
2019-02-15T09:24:37.140Z,78.7
2019-02-15T09:30:32.130Z,92.5
2019-02-15T09:36:27.094Z,118.06
2019-02-15T09:42:22.141Z,138.04
2019-02-15T09:48:17.130Z,92.03
2019-02-15T09:54:12.159Z,105.5
2019-02-15T10:00:07.146Z,102.05
2019-02-15T10:06:02.136Z,132.79
2019-02-15T10:11:57.134Z,146.79
2019-02-15T10:17:52.125Z,94.93
2019-02-15T10:23:47.173Z,116.16
2019-02-15T10:29:42.132Z,103.1
2019-02-15T10:35:37.129Z,101.69
2019-02-15T10:41:32.147Z,109.47
2019-02-15T10:47:27.184Z,108.2
2019-02-15T10:53:22.183Z,93.9
2019-02-15T10:59:17.167Z,91.99
2019-02-15T11:05:12.155Z,63.57
2019-02-15T11:11:07.224Z,60.04
2019-02-15T11:17:03.157Z,50.62
2019-02-15T11:22:57.249Z,48.73
2019-02-15T11:28:52.165Z,39.07
2019-02-15T11:34:47.205Z,40.09
2019-02-15T11:40:42.172Z,40.09
2019-02-15T11:46:37.187Z,37.31
2019-02-15T11:52:32.187Z,32.79
2019-02-15T11:58:27.191Z,29.99
2019-02-15T12:04:22.190Z,27.52
2019-02-15T12:10:17.207Z,25.98
2019-02-15T12:16:12.201Z,28.29
2019-02-15T12:22:07.227Z,26.4
2019-02-15T12:28:02.211Z,26.91
2019-02-15T12:33:57.220Z,27.54
2019-02-15T12:39:52.238Z,26.49
2019-02-15T12:45:47.192Z,31.86
2019-02-15T12:51:42.251Z,28.93
2019-02-15T12:57:37.240Z,34.07
2019-02-15T13:03:32.289Z,27.22
2019-02-15T13:09:27.254Z,34.34
2019-02-15T13:15:22.236Z,35.31
2019-02-15T13:21:17.255Z,39.53
2019-02-15T13:27:12.253Z,27.12
2019-02-15T13:33:07.239Z,28.43
2019-02-15T13:39:02.266Z,25.84
2019-02-15T13:44:57.263Z,20.1
2019-02-15T13:50:52.256Z,22.36
2019-02-15T13:56:47.280Z,20.17
2019-02-15T14:02:42.318Z,19.77
2019-02-15T14:08:37.305Z,22.21
2019-02-15T14:14:32.279Z,21.2
2019-02-15T14:20:27.298Z,44.72
2019-02-15T14:26:22.308Z,294.81
2019-02-15T14:32:17.330Z,36.81
2019-02-15T14:38:12.353Z,45.53
2019-02-15T14:44:07.302Z,29.32
2019-02-15T14:50:02.305Z,24.46
2019-02-15T14:55:57.304Z,26.37
2019-02-15T15:01:52.310Z,24.87
2019-02-15T15:07:47.317Z,28.13
2019-02-15T15:13:42.346Z,25.33
2019-02-15T15:19:37.322Z,26.23
2019-02-15T15:25:32.313Z,22.8
2019-02-15T15:31:27.320Z,22.82
2019-02-15T15:37:22.346Z,12.2
2019-02-15T15:43:17.363Z,26.9
2019-02-15T15:49:12.362Z,16.03
2019-02-15T15:55:07.361Z,16.23
2019-02-15T16:01:02.370Z,18.61
2019-02-15T16:06:57.364Z,14.86
2019-02-15T16:12:52.408Z,15.87
2019-02-15T16:18:47.368Z,38.91
2019-02-15T16:24:42.404Z,23.4
2019-02-15T16:30:37.366Z,19.45
2019-02-15T16:36:32.389Z,17.5
2019-02-15T16:42:27.384Z,23.34
2019-02-15T16:48:22.390Z,18.73
2019-02-15T16:54:17.383Z,28.59
2019-02-15T17:00:12.400Z,22.92
2019-02-15T17:06:07.414Z,25.29
2019-02-15T17:12:02.411Z,24.6
2019-02-15T17:17:57.398Z,23.18
2019-02-15T17:23:52.426Z,11.45
2019-02-15T17:29:47.405Z,17.82
2019-02-15T17:35:42.421Z,16.94
2019-02-15T17:41:37.436Z,17.01
2019-02-15T17:47:32.421Z,15.55
2019-02-15T17:53:27.414Z,10.25
2019-02-15T17:59:22.416Z,20.49
2019-02-15T18:05:17.437Z,15.65
2019-02-15T18:11:12.449Z,16.89
2019-02-15T18:17:07.447Z,112.93
2019-02-15T18:23:02.458Z,62.86
2019-02-15T18:28:57.455Z,54.43
2019-02-15T18:34:52.476Z,57.73
2019-02-15T18:40:47.455Z,62.88
2019-02-15T18:46:42.472Z,50.84
2019-02-15T18:52:37.461Z,50.27
2019-02-15T18:58:32.466Z,47.86
2019-02-15T19:04:27.481Z,71.19
2019-02-15T19:10:22.486Z,66.64
2019-02-15T19:16:17.482Z,23.86
2019-02-15T19:22:12.475Z,8.39
2019-02-15T19:28:07.503Z,2.85
2019-02-15T19:34:02.501Z,5.07
2019-02-15T19:39:57.496Z,6.72
2019-02-15T19:45:52.501Z,2.16
2019-02-15T19:51:47.516Z,4.53
2019-02-15T19:57:42.582Z,18.63
2019-02-15T20:03:37.540Z,14.97
2019-02-15T20:09:32.506Z,64.25
2019-02-15T20:15:27.514Z,67.7
2019-02-15T20:21:22.546Z,52.4
2019-02-15T20:27:17.512Z,56.57
2019-02-15T20:33:12.524Z,83.02
2019-02-15T20:39:07.566Z,51.28
2019-02-15T20:45:02.562Z,67.47
2019-02-15T20:50:57.513Z,35.21
2019-02-15T20:56:52.561Z,7.57
2019-02-15T21:02:47.571Z,28.1
2019-02-15T21:08:42.570Z,48.92
2019-02-15T21:14:37.567Z,39.05
2019-02-15T21:20:32.566Z,19.4
2019-02-15T21:26:27.558Z,2.08
2019-02-15T21:32:22.563Z,7.18
2019-02-15T21:38:17.570Z,7.58
2019-02-15T21:44:12.573Z,7.66
2019-02-15T21:50:16.346Z,6.4
2019-02-15T21:56:02.569Z,23.6
2019-02-15T22:01:57.573Z,25.05
2019-02-15T22:07:52.578Z,18.8
2019-02-15T22:13:47.581Z,22.33
2019-02-15T22:19:42.579Z,17.09
2019-02-15T22:25:37.590Z,17.3
2019-02-15T22:31:32.601Z,12.69
2019-02-15T22:37:27.599Z,14.55
2019-02-15T22:43:22.644Z,17.03
2019-02-15T22:49:17.589Z,22.35
2019-02-15T22:55:12.617Z,22.3
2019-02-15T23:01:07.596Z,24.22
2019-02-15T23:07:02.668Z,21.44
2019-02-15T23:12:57.614Z,16.24
2019-02-15T23:18:52.651Z,18.28
2019-02-15T23:24:47.623Z,13.01
2019-02-15T23:30:42.721Z,13.43
2019-02-15T23:36:37.634Z,15.7
2019-02-15T23:42:32.629Z,16.7
2019-02-15T23:48:27.734Z,12.68
2019-02-15T23:54:22.635Z,18.15
